createdAt,value
2023-05-10T00:03:06.171Z,87.29
2023-05-10T00:06:14.777Z,87.67
2023-05-10T00:09:23.457Z,87.20
2023-05-10T00:12:33.264Z,87.44
2023-05-10T00:15:41.893Z,87.59
2023-05-10T00:18:50.343Z,87.58
2023-05-10T00:21:59.093Z,88.07
2023-05-10T00:25:09.132Z,88.34
2023-05-10T00:28:19.610Z,87.75
2023-05-10T00:31:28.116Z,87.74
2023-05-10T00:34:36.609Z,88.14
2023-05-10T00:37:45.304Z,87.41
2023-05-10T00:40:55.751Z,87.03
2023-05-10T00:44:12.107Z,87.65
2023-05-10T00:47:21.211Z,87.24
2023-05-10T00:50:30.019Z,87.65
2023-05-10T00:53:38.881Z,87.75
2023-05-10T00:56:50.024Z,88.37
2023-05-10T01:00:00.011Z,87.44
2023-05-10T01:03:08.796Z,87.71
2023-05-10T01:06:17.715Z,87.84
2023-05-10T01:09:27.336Z,88.08
2023-05-10T01:12:37.014Z,87.74
2023-05-10T01:15:48.426Z,88.34
2023-05-10T01:18:57.872Z,88.36
2023-05-10T01:22:17.993Z,88.18
2023-05-10T01:25:49.082Z,87.77
2023-05-10T01:29:35.813Z,88.51
2023-05-10T01:32:53.141Z,88.41
2023-05-10T01:36:08.037Z,87.75
2023-05-10T01:39:26.543Z,88.01
2023-05-10T01:42:42.493Z,89.04
2023-05-10T01:46:02.079Z,88.30
2023-05-10T01:49:17.436Z,88.67
2023-05-10T01:52:32.184Z,88.08
2023-05-10T01:55:47.215Z,88.14
2023-05-10T01:58:58.418Z,88.18
2023-05-10T02:02:07.996Z,89.11
2023-05-10T02:05:19.864Z,88.54
2023-05-10T02:08:30.203Z,89.65
2023-05-10T02:11:41.290Z,89.41
2023-05-10T02:14:52.470Z,89.14
2023-05-10T02:18:02.542Z,89.59
2023-05-10T02:21:14.388Z,89.59
2023-05-10T02:24:26.351Z,89.17
2023-05-10T02:27:37.379Z,89.36
2023-05-10T02:30:46.575Z,88.81
2023-05-10T02:33:57.237Z,88.59
2023-05-10T02:37:08.193Z,89.17
2023-05-10T02:40:18.919Z,89.56
2023-05-10T02:43:30.433Z,89.61
2023-05-10T02:46:39.564Z,89.97
2023-05-10T02:49:49.039Z,89.20
2023-05-10T02:53:04.124Z,89.46
2023-05-10T02:56:18.236Z,88.84
2023-05-10T02:59:27.352Z,88.44
2023-05-10T03:02:37.374Z,88.67
2023-05-10T03:05:46.116Z,89.11
2023-05-10T03:08:56.355Z,88.52
2023-05-10T03:12:13.732Z,89.37
2023-05-10T03:15:27.109Z,88.73
2023-05-10T03:18:43.907Z,88.21
2023-05-10T03:21:55.482Z,88.21
2023-05-10T03:25:09.728Z,88.94
2023-05-10T03:28:19.784Z,88.71
2023-05-10T03:31:29.834Z,88.59
2023-05-10T03:34:44.584Z,88.55
2023-05-10T03:37:53.464Z,87.94
2023-05-10T03:41:04.139Z,88.99
2023-05-10T03:44:12.685Z,88.35
2023-05-10T03:47:21.490Z,89.31
2023-05-10T03:50:30.269Z,88.71
2023-05-10T03:53:38.877Z,88.33
2023-05-10T03:56:49.364Z,89.72
2023-05-10T03:59:59.580Z,88.82
2023-05-10T04:03:08.231Z,88.99
2023-05-10T04:06:16.969Z,89.07
2023-05-10T04:09:25.537Z,88.56
2023-05-10T04:12:38.858Z,88.96
2023-05-10T04:15:48.690Z,87.85
2023-05-10T04:18:57.354Z,88.43
2023-05-10T04:22:06.141Z,89.00
2023-05-10T04:25:14.908Z,88.01
2023-05-10T04:28:24.799Z,88.20
2023-05-10T04:31:33.418Z,87.78
2023-05-10T04:34:41.863Z,88.02
2023-05-10T04:37:50.464Z,87.19
2023-05-10T04:41:07.283Z,87.43
2023-05-10T04:44:17.154Z,88.25
2023-05-10T04:47:25.633Z,88.57
2023-05-10T04:50:34.261Z,88.39
2023-05-10T04:53:46.475Z,87.65
2023-05-10T04:56:59.633Z,87.76
2023-05-10T05:00:10.959Z,87.75
2023-05-10T05:03:19.468Z,87.51
2023-05-10T05:06:28.288Z,87.33
2023-05-10T05:09:37.164Z,86.56
2023-05-10T05:12:45.786Z,86.63
2023-05-10T05:15:55.927Z,86.68
2023-05-10T05:19:04.581Z,87.29
2023-05-10T05:22:13.042Z,86.77
2023-05-10T05:25:21.579Z,86.61
2023-05-10T05:28:35.012Z,86.23
2023-05-10T05:31:44.864Z,86.55
2023-05-10T05:34:53.786Z,86.83
2023-05-10T05:38:02.303Z,86.67
2023-05-10T05:41:10.990Z,87.13
2023-05-10T05:44:19.435Z,86.94
2023-05-10T05:47:29.275Z,87.29
2023-05-10T05:50:37.828Z,87.92
2023-05-10T05:53:46.734Z,87.16
2023-05-10T05:56:57.665Z,87.65
2023-05-10T06:00:08.676Z,87.82
2023-05-10T06:03:24.241Z,87.75
2023-05-10T06:06:33.221Z,88.80
2023-05-10T06:09:41.829Z,87.72
2023-05-10T06:12:50.374Z,89.81
2023-05-10T06:15:59.789Z,88.88
2023-05-10T06:19:09.829Z,89.94
2023-05-10T06:22:18.482Z,90.04
2023-05-10T06:25:27.780Z,90.25
2023-05-10T06:28:36.389Z,89.37
2023-05-10T06:31:44.979Z,89.20
2023-05-10T06:34:54.831Z,89.60
2023-05-10T06:38:03.596Z,88.91
2023-05-10T06:41:12.627Z,88.07
2023-05-10T06:44:21.121Z,88.75
2023-05-10T06:47:29.629Z,87.49
2023-05-10T06:50:40.559Z,86.93
2023-05-10T06:53:49.678Z,87.30
2023-05-10T06:56:58.967Z,87.46
2023-05-10T07:00:10.540Z,87.17
2023-05-10T07:03:19.071Z,85.90
2023-05-10T07:06:33.258Z,85.27
2023-05-10T07:09:43.114Z,83.40
2023-05-10T07:12:52.037Z,80.60
2023-05-10T07:16:03.036Z,79.14
2023-05-10T07:19:11.937Z,78.48
2023-05-10T07:22:22.023Z,77.10
2023-05-10T07:25:30.540Z,74.59
2023-05-10T07:28:40.115Z,75.13
2023-05-10T07:31:48.319Z,74.28
2023-05-10T07:34:56.745Z,74.57
2023-05-10T07:38:06.432Z,73.62
2023-05-10T07:41:15.442Z,74.08
2023-05-10T07:44:24.131Z,71.62
2023-05-10T07:47:32.479Z,73.12
2023-05-10T07:50:40.784Z,75.00
2023-05-10T07:53:51.629Z,73.76
2023-05-10T07:57:00.731Z,71.95
2023-05-10T08:00:10.903Z,72.07
2023-05-10T08:03:22.290Z,68.29
2023-05-10T08:06:31.250Z,68.33
2023-05-10T08:09:41.278Z,70.33
2023-05-10T08:12:52.371Z,71.53
2023-05-10T08:16:01.597Z,70.81
2023-05-10T08:19:09.959Z,72.72
2023-05-10T08:22:18.676Z,72.32
2023-05-10T08:25:28.575Z,70.05
2023-05-10T08:28:37.093Z,72.45
2023-05-10T08:31:45.330Z,70.62
2023-05-10T08:34:53.554Z,73.12
2023-05-10T08:38:01.889Z,71.19
2023-05-10T08:41:13.235Z,69.77
2023-05-10T08:44:22.898Z,70.58
2023-05-10T08:47:32.658Z,67.65
2023-05-10T08:50:43.926Z,66.01
2023-05-10T08:53:52.699Z,68.84
2023-05-10T08:57:02.739Z,71.82
2023-05-10T09:00:14.126Z,72.66
2023-05-10T09:03:22.439Z,71.08
2023-05-10T09:06:31.150Z,72.98
2023-05-10T09:09:39.761Z,73.27
2023-05-10T09:12:51.163Z,74.70
2023-05-10T09:16:04.461Z,80.18
2023-05-10T09:19:22.018Z,80.25
2023-05-10T09:22:30.589Z,79.73
2023-05-10T09:25:39.697Z,80.90
2023-05-10T09:28:58.893Z,80.03
2023-05-10T09:32:07.075Z,81.25
2023-05-10T09:35:20.114Z,81.99
2023-05-10T09:38:28.562Z,79.98
2023-05-10T09:41:39.070Z,79.52
2023-05-10T09:44:48.980Z,79.25
2023-05-10T09:47:57.824Z,79.34
2023-05-10T09:51:06.006Z,80.11
2023-05-10T09:54:17.148Z,79.61
2023-05-10T09:57:27.555Z,78.79
2023-05-10T10:00:40.568Z,78.78
2023-05-10T10:03:49.038Z,77.44
2023-05-10T10:07:03.879Z,76.27
2023-05-10T10:10:13.537Z,72.71
2023-05-10T10:13:21.869Z,73.75
2023-05-10T10:16:32.773Z,72.23
2023-05-10T10:19:41.515Z,68.17
2023-05-10T10:22:51.030Z,68.43
2023-05-10T10:26:01.018Z,64.39
2023-05-10T10:29:23.587Z,62.98
2023-05-10T10:33:05.573Z,61.75
2023-05-10T10:36:18.691Z,58.96
2023-05-10T10:39:27.614Z,63.19
2023-05-10T10:42:50.839Z,63.27
2023-05-10T10:46:15.342Z,63.40
2023-05-10T10:49:25.238Z,59.22
2023-05-10T10:52:35.387Z,58.46
2023-05-10T10:55:51.052Z,57.52
2023-05-10T10:59:02.718Z,58.35
2023-05-10T11:02:10.872Z,58.92
2023-05-10T11:05:46.510Z,61.94
2023-05-10T11:08:55.626Z,59.29
2023-05-10T11:12:11.138Z,61.22
2023-05-10T11:15:19.629Z,62.16
2023-05-10T11:18:30.067Z,60.45
2023-05-10T11:21:49.350Z,62.50
2023-05-10T11:25:01.075Z,63.82
2023-05-10T11:28:09.741Z,68.51
2023-05-10T11:31:19.515Z,71.76
2023-05-10T11:34:31.257Z,73.55
2023-05-10T11:37:44.850Z,74.35
2023-05-10T11:40:55.568Z,77.54
2023-05-10T11:44:04.781Z,80.91
2023-05-10T11:47:14.466Z,83.14
2023-05-10T11:50:22.644Z,83.15
2023-05-10T11:53:34.463Z,83.18
2023-05-10T11:56:43.750Z,83.73
2023-05-10T11:59:56.621Z,82.77
2023-05-10T12:03:05.550Z,82.06
2023-05-10T12:06:13.997Z,82.38
2023-05-10T12:12:42.760Z,82.77
2023-05-10T12:15:51.061Z,83.49
2023-05-10T12:19:05.741Z,83.72
2023-05-10T12:22:14.095Z,83.02
2023-05-10T12:25:26.197Z,83.17
2023-05-10T12:28:39.402Z,83.20
2023-05-10T12:31:57.565Z,83.23
2023-05-10T12:35:07.532Z,82.66
2023-05-10T12:38:31.766Z,82.95
2023-05-10T12:41:43.601Z,83.65
2023-05-10T12:44:52.176Z,83.46
2023-05-10T12:48:00.374Z,84.18
2023-05-10T12:51:12.669Z,84.87
2023-05-10T12:54:20.842Z,83.64
2023-05-10T12:57:30.687Z,83.81
2023-05-10T13:00:39.043Z,82.73
2023-05-10T13:03:47.170Z,82.11
2023-05-10T13:06:57.117Z,82.66
2023-05-10T13:10:06.558Z,82.21
2023-05-10T13:13:16.734Z,82.38
2023-05-10T13:16:24.920Z,81.40
2023-05-10T13:19:33.118Z,81.38
2023-05-10T13:22:41.684Z,79.95
2023-05-10T13:25:50.041Z,78.84
2023-05-10T13:28:59.938Z,79.75
2023-05-10T13:32:08.190Z,78.25
2023-05-10T13:35:16.611Z,78.04
2023-05-10T13:38:25.092Z,78.38
2023-05-10T13:41:33.373Z,78.60
2023-05-10T13:44:42.949Z,79.54
2023-05-10T13:47:51.155Z,77.92
2023-05-10T13:50:59.593Z,77.91
2023-05-10T13:54:08.279Z,77.54
2023-05-10T13:57:17.961Z,77.40
2023-05-10T14:00:28.243Z,76.22
2023-05-10T14:03:37.121Z,77.18
2023-05-10T14:06:45.596Z,77.25
2023-05-10T14:09:54.144Z,76.74
2023-05-10T14:13:02.400Z,76.58
2023-05-10T14:16:12.577Z,76.17
2023-05-10T14:19:21.902Z,76.86
2023-05-10T14:22:30.287Z,77.19
2023-05-10T14:25:41.949Z,77.40
2023-05-10T14:28:50.574Z,77.58
2023-05-10T14:32:00.346Z,77.01
2023-05-10T14:35:12.197Z,76.64
2023-05-10T14:38:21.375Z,78.48
2023-05-10T14:41:31.157Z,76.90
2023-05-10T14:44:39.430Z,77.50
2023-05-10T14:47:50.561Z,77.78
2023-05-10T14:50:58.661Z,77.27
2023-05-10T14:54:07.371Z,76.11
2023-05-10T14:57:16.227Z,76.46
2023-05-10T15:00:24.594Z,78.33
2023-05-10T15:03:34.472Z,77.60
2023-05-10T15:06:43.597Z,76.94
2023-05-10T15:09:52.600Z,77.34
2023-05-10T15:13:01.527Z,77.71
2023-05-10T15:16:09.857Z,77.25
2023-05-10T15:19:19.497Z,79.86
2023-05-10T15:22:29.246Z,79.98
2023-05-10T15:25:38.530Z,79.30
2023-05-10T15:28:47.472Z,80.32
2023-05-10T15:31:55.758Z,80.19
2023-05-10T15:35:06.474Z,81.13
2023-05-10T15:38:14.773Z,81.15
2023-05-10T15:41:23.680Z,81.92
2023-05-10T15:44:32.244Z,82.07
2023-05-10T15:47:41.421Z,81.55
2023-05-10T15:50:51.063Z,81.18
2023-05-10T15:54:07.295Z,81.55
2023-05-10T15:57:16.168Z,81.08
2023-05-10T16:00:24.402Z,82.18
2023-05-10T16:03:33.543Z,81.73
2023-05-10T16:06:44.877Z,81.73
2023-05-10T16:09:53.437Z,82.00
2023-05-10T16:13:03.298Z,82.40
2023-05-10T16:16:11.981Z,82.23
2023-05-10T16:19:20.838Z,81.88
2023-05-10T16:22:31.621Z,81.98
2023-05-10T16:25:40.978Z,83.72
2023-05-10T16:28:50.385Z,83.38
2023-05-10T16:32:00.146Z,83.27
2023-05-10T16:35:10.300Z,83.38
2023-05-10T16:38:21.591Z,83.86
2023-05-10T16:41:30.058Z,83.45
2023-05-10T16:44:39.366Z,83.69
2023-05-10T16:47:47.978Z,82.79
2023-05-10T16:50:56.479Z,82.81
2023-05-10T16:54:06.511Z,83.43
2023-05-10T16:57:15.134Z,83.77
2023-05-10T17:00:24.064Z,84.40
2023-05-10T17:03:32.285Z,84.39
2023-05-10T17:06:41.431Z,84.33
2023-05-10T17:09:51.965Z,84.90
2023-05-10T17:13:00.593Z,84.54
2023-05-10T17:16:09.221Z,85.01
2023-05-10T17:19:17.842Z,85.46
2023-05-10T17:22:26.470Z,85.06
2023-05-10T17:25:39.404Z,85.40
2023-05-10T17:28:48.218Z,84.60
2023-05-10T17:31:56.884Z,86.51
2023-05-10T17:35:07.514Z,86.46
2023-05-10T17:38:16.879Z,85.73
2023-05-10T17:41:26.569Z,85.98
2023-05-10T17:44:35.119Z,85.87
2023-05-10T17:47:44.237Z,86.07
2023-05-10T17:50:52.951Z,86.68
2023-05-10T17:54:02.792Z,86.06
2023-05-10T17:57:12.444Z,85.83
2023-05-10T18:00:21.387Z,84.91
2023-05-10T18:03:32.153Z,84.71
2023-05-10T18:06:42.075Z,84.93
2023-05-10T18:09:51.723Z,84.93
2023-05-10T18:13:02.588Z,85.61
2023-05-10T18:16:12.784Z,85.13
2023-05-10T18:19:22.329Z,86.56
2023-05-10T18:22:30.512Z,86.40
2023-05-10T18:25:39.054Z,87.44
2023-05-10T18:28:49.745Z,87.27
2023-05-10T18:31:59.080Z,87.11
2023-05-10T18:35:09.944Z,88.06
2023-05-10T18:38:20.035Z,87.67
2023-05-10T18:41:28.578Z,87.53
2023-05-10T18:44:38.412Z,87.65
2023-05-10T18:47:47.012Z,86.96
2023-05-10T18:50:55.578Z,87.43
2023-05-10T18:54:04.190Z,87.67
2023-05-10T18:57:13.781Z,87.47
2023-05-10T19:00:23.410Z,87.52
2023-05-10T19:03:32.067Z,87.32
2023-05-10T19:06:41.848Z,88.25
2023-05-10T19:09:50.157Z,88.27
2023-05-10T19:12:58.483Z,88.88
2023-05-10T19:16:15.156Z,88.37
2023-05-10T19:19:24.674Z,87.81
2023-05-10T19:22:45.426Z,88.11
2023-05-10T19:26:02.465Z,86.74
2023-05-10T19:29:11.150Z,86.88
2023-05-10T19:32:20.918Z,87.34
2023-05-10T19:35:29.481Z,87.34
2023-05-10T19:38:38.444Z,87.66
2023-05-10T19:41:47.805Z,88.22
2023-05-10T19:44:57.549Z,87.95
2023-05-10T19:48:08.572Z,88.00
2023-05-10T19:51:17.095Z,87.19
2023-05-10T19:54:25.527Z,87.85
2023-05-10T19:57:33.742Z,88.43
2023-05-10T20:00:42.121Z,88.43
2023-05-10T20:03:54.195Z,88.23
2023-05-10T20:07:02.575Z,88.31
2023-05-10T20:10:12.503Z,88.03
2023-05-10T20:13:20.728Z,88.01
2023-05-10T20:16:29.201Z,87.99
2023-05-10T20:19:39.028Z,87.92
2023-05-10T20:22:47.595Z,88.10
2023-05-10T20:25:56.484Z,88.07
2023-05-10T20:29:04.885Z,88.68
2023-05-10T20:32:13.235Z,88.64
2023-05-10T20:35:22.727Z,88.88
2023-05-10T20:38:30.992Z,88.30
2023-05-10T20:41:39.483Z,88.13
2023-05-10T20:44:47.815Z,88.26
2023-05-10T20:47:56.112Z,87.97
2023-05-10T20:51:05.690Z,88.89
2023-05-10T20:54:14.284Z,88.61
2023-05-10T20:57:22.462Z,88.53
2023-05-10T21:00:31.296Z,88.09
2023-05-10T21:03:39.754Z,88.05
2023-05-10T21:06:49.571Z,88.23
2023-05-10T21:09:57.985Z,87.93
2023-05-10T21:13:06.158Z,88.08
2023-05-10T21:16:14.569Z,88.33
2023-05-10T21:19:22.967Z,87.84
2023-05-10T21:22:32.402Z,88.55
2023-05-10T21:25:40.532Z,87.85
2023-05-10T21:28:48.747Z,88.36
2023-05-10T21:31:56.852Z,88.21
2023-05-10T21:35:05.473Z,88.20
2023-05-10T21:38:15.690Z,87.61
2023-05-10T21:41:24.455Z,87.35
2023-05-10T21:44:32.549Z,86.45
2023-05-10T21:47:40.623Z,86.89
2023-05-10T21:50:48.706Z,86.09
2023-05-10T21:53:58.309Z,86.83
2023-05-10T21:57:06.375Z,86.89
2023-05-10T22:00:16.401Z,86.89
2023-05-10T22:03:24.921Z,86.31
2023-05-10T22:06:33.027Z,86.73
2023-05-10T22:09:42.550Z,87.97
2023-05-10T22:12:51.661Z,88.18
2023-05-10T22:16:00.595Z,87.49
2023-05-10T22:19:08.916Z,87.70
2023-05-10T22:22:17.670Z,86.94
2023-05-10T22:25:29.319Z,87.33
2023-05-10T22:28:37.883Z,87.68
2023-05-10T22:31:46.285Z,88.07
2023-05-10T22:34:54.520Z,87.51
2023-05-10T22:38:03.241Z,87.64
2023-05-10T22:41:13.010Z,88.50
2023-05-10T22:44:21.884Z,88.00
2023-05-10T22:47:30.031Z,88.12
2023-05-10T22:50:38.589Z,88.37
2023-05-10T22:53:46.857Z,88.40
2023-05-10T22:56:57.475Z,88.45
2023-05-10T23:00:07.883Z,88.60
2023-05-10T23:03:16.230Z,88.46
2023-05-10T23:06:24.372Z,89.46
2023-05-10T23:09:32.485Z,89.79
2023-05-10T23:12:42.782Z,88.69
2023-05-10T23:15:50.918Z,89.33
2023-05-10T23:18:59.065Z,89.14
2023-05-10T23:22:07.666Z,88.86
2023-05-10T23:25:17.511Z,88.61
2023-05-10T23:28:29.385Z,90.03
2023-05-10T23:31:37.663Z,89.54
2023-05-10T23:34:46.051Z,89.81
2023-05-10T23:37:54.173Z,88.49
2023-05-10T23:41:02.410Z,89.96
2023-05-10T23:44:11.913Z,90.00
2023-05-10T23:47:20.239Z,89.42
2023-05-10T23:50:28.326Z,89.00
2023-05-10T23:53:37.570Z,88.76
2023-05-10T23:56:45.801Z,89.39
2023-05-10T23:59:55.226Z,89.45
